Terminal Aerodrome Forecast
Issued by NWS

Home | Current Version | Previous Version | Text Only | Print | Product List | Glossary On
Versions: 1 2 3 4 5 6 7 8 9 10 11 12
000
FTUS46 KSTO 250500
TAFSCK
TAF
KSCK 250538Z 2506/2606 25011KT 6SM -RA OVC060
      TEMPO 2508/2512 3SM -RA SCT007 OVC012
     FM252000 28009KT P6SM SCT060 BKN100=

USA.gov is the U.S. government's official web portal to all federal, state and local government web resources and services.